createdAt,value
2018-09-21T00:00:31.110Z,4.73
2018-09-21T00:02:59.664Z,4.17
2018-09-21T00:05:28.012Z,4.10
2018-09-21T00:07:56.408Z,4.30
2018-09-21T00:10:24.716Z,3.73
2018-09-21T00:12:53.096Z,3.90
2018-09-21T00:15:21.392Z,4.03
2018-09-21T00:17:49.747Z,4.53
2018-09-21T00:20:18.078Z,4.30
2018-09-21T00:22:46.378Z,3.70
2018-09-21T00:25:14.782Z,4.50
2018-09-21T00:27:43.093Z,4.13
2018-09-21T00:30:11.542Z,4.63
2018-09-21T00:32:39.961Z,4.70
2018-09-21T00:35:08.368Z,5.00
2018-09-21T00:37:36.721Z,4.60
2018-09-21T00:40:05.093Z,4.27
2018-09-21T00:42:33.430Z,4.40
2018-09-21T00:45:01.823Z,4.37
2018-09-21T00:47:30.127Z,5.30
2018-09-21T00:49:58.434Z,4.70
2018-09-21T00:52:26.745Z,4.30
2018-09-21T00:54:55.052Z,4.73
2018-09-21T00:57:23.528Z,4.57
2018-09-21T00:59:51.798Z,4.70
2018-09-21T01:02:20.253Z,5.10
2018-09-21T01:04:48.605Z,4.87
2018-09-21T01:07:16.951Z,4.70
2018-09-21T01:09:45.265Z,4.50
2018-09-21T01:12:13.603Z,4.70
2018-09-21T01:14:41.992Z,5.20
2018-09-21T01:17:10.376Z,4.60
2018-09-21T01:19:38.680Z,4.60
2018-09-21T01:22:06.995Z,4.60
2018-09-21T01:24:35.391Z,5.20
2018-09-21T01:27:03.811Z,5.33
2018-09-21T01:29:32.199Z,4.60
2018-09-21T01:32:00.532Z,4.57
2018-09-21T01:34:29.054Z,4.87
2018-09-21T01:36:57.445Z,4.73
2018-09-21T01:39:25.889Z,5.30
2018-09-21T01:41:54.188Z,5.57
2018-09-21T01:44:22.541Z,4.93
2018-09-21T01:46:50.843Z,6.03
2018-09-21T01:49:19.180Z,5.17
2018-09-21T01:51:47.456Z,6.23
2018-09-21T01:54:15.918Z,5.47
2018-09-21T01:56:44.264Z,5.57
2018-09-21T01:59:12.607Z,5.70
2018-09-21T02:01:40.958Z,4.70
2018-09-21T02:04:09.278Z,5.70
2018-09-21T02:06:37.798Z,5.30
2018-09-21T02:09:07.795Z,5.23
2018-09-21T02:11:36.127Z,5.53
2018-09-21T02:14:04.488Z,5.60
2018-09-21T02:16:32.827Z,5.30
2018-09-21T02:19:01.136Z,5.10
2018-09-21T02:21:29.464Z,5.50
2018-09-21T02:23:57.921Z,5.20
2018-09-21T02:26:26.341Z,5.63
2018-09-21T02:28:54.787Z,4.83
2018-09-21T02:31:23.214Z,6.20
2018-09-21T02:33:51.534Z,6.03
2018-09-21T02:36:19.877Z,5.87
2018-09-21T02:38:48.202Z,5.30
2018-09-21T02:41:16.623Z,6.07
2018-09-21T02:43:44.923Z,5.90
2018-09-21T02:46:13.223Z,5.00
2018-09-21T02:48:41.646Z,5.43
2018-09-21T02:51:09.930Z,4.83
2018-09-21T02:53:38.363Z,5.87
2018-09-21T02:56:06.677Z,5.03
2018-09-21T02:58:35.015Z,4.60
2018-09-21T03:01:03.424Z,5.50
2018-09-21T03:03:31.839Z,5.53
2018-09-21T03:06:00.348Z,5.57
2018-09-21T03:08:28.760Z,5.50
2018-09-21T03:10:57.431Z,4.80
2018-09-21T03:13:26.134Z,5.10
2018-09-21T03:15:54.508Z,5.30
2018-09-21T03:18:23.063Z,4.77
2018-09-21T03:20:51.408Z,4.87
2018-09-21T03:23:19.816Z,4.90
2018-09-21T03:25:48.100Z,4.97
2018-09-21T03:28:16.823Z,4.97
2018-09-21T03:30:45.358Z,4.90
2018-09-21T03:33:13.705Z,5.60
2018-09-21T03:35:42.166Z,4.47
2018-09-21T03:38:10.988Z,4.83
2018-09-21T03:40:39.761Z,5.20
2018-09-21T03:43:09.415Z,4.60
2018-09-21T03:45:38.373Z,4.13
2018-09-21T03:48:06.685Z,4.70
2018-09-21T03:50:35.171Z,5.10
2018-09-21T03:53:03.714Z,5.67
2018-09-21T03:55:32.047Z,4.57
2018-09-21T03:58:00.352Z,4.33
2018-09-21T04:00:28.758Z,4.67
2018-09-21T04:02:57.381Z,3.87
2018-09-21T04:05:25.692Z,4.50
2018-09-21T04:07:54.072Z,4.13
2018-09-21T04:10:22.366Z,4.63
2018-09-21T04:12:50.705Z,5.53
2018-09-21T04:15:19.018Z,4.50
2018-09-21T04:17:47.310Z,5.07
2018-09-21T04:20:15.608Z,4.67
2018-09-21T04:22:48.109Z,5.57
2018-09-21T04:25:16.465Z,5.13
2018-09-21T04:27:44.921Z,4.63
2018-09-21T04:30:13.522Z,4.60
2018-09-21T04:32:41.807Z,4.67
2018-09-21T04:35:10.035Z,4.07
2018-09-21T04:37:38.392Z,4.73
2018-09-21T04:40:06.763Z,4.87
2018-09-21T04:42:35.165Z,5.13
2018-09-21T04:45:03.442Z,4.70
2018-09-21T04:47:31.985Z,4.23
2018-09-21T04:50:00.320Z,5.13
2018-09-21T04:52:28.652Z,5.03
2018-09-21T04:54:56.947Z,4.97
2018-09-21T04:57:25.325Z,5.47
2018-09-21T04:59:53.736Z,4.70
2018-09-21T05:02:22.058Z,4.57
2018-09-21T05:04:50.423Z,5.33
2018-09-21T05:07:18.743Z,5.40
2018-09-21T05:09:47.030Z,5.30
2018-09-21T05:12:15.405Z,5.50
2018-09-21T05:14:43.684Z,4.80
2018-09-21T05:17:12.118Z,5.87
2018-09-21T05:19:40.505Z,5.43
2018-09-21T05:22:08.913Z,4.87
2018-09-21T05:24:37.302Z,5.10
2018-09-21T05:27:05.705Z,5.10
2018-09-21T05:29:34.296Z,5.37
2018-09-21T05:32:02.707Z,5.90
2018-09-21T05:34:31.140Z,5.27
2018-09-21T05:36:59.517Z,5.33
2018-09-21T05:39:27.834Z,4.50
2018-09-21T05:41:56.208Z,5.80
2018-09-21T05:44:24.527Z,5.10
2018-09-21T05:46:52.904Z,5.40
2018-09-21T05:49:21.266Z,5.43
2018-09-21T05:51:49.537Z,5.40
2018-09-21T05:54:17.855Z,5.90
2018-09-21T05:56:47.368Z,4.57
2018-09-21T05:59:15.731Z,5.30
2018-09-21T06:01:44.055Z,5.30
2018-09-21T06:04:12.458Z,4.63
2018-09-21T06:06:40.939Z,5.00
2018-09-21T06:09:11.089Z,4.77
2018-09-21T06:11:39.874Z,5.50
2018-09-21T06:14:08.416Z,4.70
2018-09-21T06:16:36.679Z,5.47
2018-09-21T06:19:05.219Z,5.77
2018-09-21T06:21:33.744Z,5.17
2018-09-21T06:24:02.079Z,4.83
2018-09-21T06:26:30.436Z,5.73
2018-09-21T06:28:58.793Z,5.60
2018-09-21T06:31:27.200Z,6.30
2018-09-21T06:33:55.585Z,5.40
2018-09-21T06:36:24.056Z,6.40
2018-09-21T06:38:52.392Z,5.40
2018-09-21T06:41:20.854Z,5.60
2018-09-21T06:43:49.253Z,5.23
2018-09-21T06:46:17.537Z,5.23
2018-09-21T06:48:46.136Z,6.47
2018-09-21T06:51:14.700Z,5.37
2018-09-21T06:53:43.120Z,5.80
2018-09-21T06:56:11.482Z,4.90
2018-09-21T06:58:39.880Z,6.27
2018-09-21T07:01:08.195Z,5.27
2018-09-21T07:03:36.512Z,5.40
2018-09-21T07:06:04.951Z,5.37
2018-09-21T07:08:33.504Z,5.27
2018-09-21T07:11:01.894Z,4.60
2018-09-21T07:13:30.342Z,5.63
2018-09-21T07:15:58.771Z,4.77
2018-09-21T07:18:27.236Z,5.70
2018-09-21T07:20:55.603Z,5.67
2018-09-21T07:23:24.003Z,6.73
2018-09-21T07:25:52.435Z,5.00
2018-09-21T07:28:20.955Z,4.80
2018-09-21T07:30:49.332Z,4.83
2018-09-21T07:33:17.672Z,5.37
2018-09-21T07:35:46.225Z,4.33
2018-09-21T07:38:14.694Z,4.47
2018-09-21T07:40:43.090Z,4.40
2018-09-21T07:43:11.628Z,4.70
2018-09-21T07:45:40.085Z,5.03
2018-09-21T07:48:08.528Z,4.77
2018-09-21T07:50:37.663Z,3.83
2018-09-21T07:53:05.954Z,4.40
2018-09-21T07:55:34.336Z,4.53
2018-09-21T07:58:03.248Z,4.50
2018-09-21T08:00:31.703Z,4.10
2018-09-21T08:03:00.128Z,5.07
2018-09-21T08:05:32.603Z,4.43
2018-09-21T08:08:01.772Z,4.77
2018-09-21T08:10:30.231Z,3.90
2018-09-21T08:12:58.964Z,4.97
2018-09-21T08:15:27.237Z,4.03
2018-09-21T08:17:55.696Z,4.30
2018-09-21T08:20:24.092Z,3.77
2018-09-21T08:22:52.570Z,4.23
2018-09-21T08:25:21.000Z,4.37
2018-09-21T08:27:49.564Z,4.73
2018-09-21T08:30:18.184Z,3.13
2018-09-21T08:32:46.659Z,4.10
2018-09-21T08:35:15.249Z,3.03
2018-09-21T08:37:43.870Z,3.43
2018-09-21T08:40:12.222Z,3.40
2018-09-21T08:42:40.579Z,3.07
2018-09-21T08:45:09.676Z,4.13
2018-09-21T08:47:38.080Z,3.67
2018-09-21T08:50:07.519Z,4.07
2018-09-21T08:52:36.389Z,3.80
2018-09-21T08:55:04.944Z,3.37
2018-09-21T08:57:33.279Z,8.60
2018-09-21T09:00:01.923Z,3.10
2018-09-21T09:02:30.198Z,3.10
2018-09-21T09:04:58.870Z,2.90
2018-09-21T09:07:27.556Z,3.60
2018-09-21T09:09:56.230Z,3.80
2018-09-21T09:12:24.827Z,3.03
2018-09-21T09:14:53.294Z,4.57
2018-09-21T09:17:21.679Z,4.73
2018-09-21T09:19:50.057Z,3.80
2018-09-21T09:22:18.443Z,3.27
2018-09-21T09:24:46.822Z,4.30
2018-09-21T09:27:15.335Z,3.90
2018-09-21T09:29:43.877Z,3.90
2018-09-21T09:32:12.262Z,4.07
2018-09-21T09:34:40.619Z,3.40
2018-09-21T09:37:09.027Z,4.53
2018-09-21T09:39:37.600Z,3.30
2018-09-21T09:42:05.967Z,3.13
2018-09-21T09:44:34.335Z,1.93
2018-09-21T09:47:02.767Z,1.30
2018-09-21T09:49:31.156Z,1.37
2018-09-21T09:51:59.603Z,0.77
2018-09-21T09:54:28.048Z,1.40
2018-09-21T09:56:56.351Z,1.70
2018-09-21T09:59:24.705Z,1.70
2018-09-21T10:01:53.222Z,1.67
2018-09-21T10:04:21.775Z,2.47
2018-09-21T10:06:50.123Z,1.57
2018-09-21T10:09:18.591Z,1.70
2018-09-21T10:11:47.137Z,2.00
2018-09-21T10:14:15.623Z,1.77
2018-09-21T10:16:43.991Z,1.57
2018-09-21T10:19:12.357Z,1.70
2018-09-21T10:21:40.892Z,2.67
2018-09-21T10:24:09.362Z,1.77
2018-09-21T10:26:37.837Z,2.00
2018-09-21T10:29:06.214Z,1.90
2018-09-21T10:31:34.685Z,2.30
2018-09-21T10:34:03.035Z,1.47
2018-09-21T10:36:31.477Z,1.50
2018-09-21T10:39:00.156Z,1.30
2018-09-21T10:41:28.560Z,1.50
2018-09-21T10:43:57.034Z,2.20
2018-09-21T10:46:25.447Z,1.80
2018-09-21T10:48:54.022Z,1.33
2018-09-21T10:51:22.387Z,1.90
2018-09-21T10:53:50.708Z,1.80
2018-09-21T10:56:19.132Z,1.93
2018-09-21T10:58:47.540Z,1.90
2018-09-21T11:01:15.918Z,2.57
2018-09-21T11:03:44.243Z,2.13
2018-09-21T11:06:12.752Z,1.80
2018-09-21T11:08:41.171Z,1.70
2018-09-21T11:11:09.727Z,2.13
2018-09-21T11:13:38.263Z,2.13
2018-09-21T11:16:06.914Z,1.80
2018-09-21T11:18:35.266Z,1.60
2018-09-21T11:21:03.656Z,2.17
2018-09-21T11:23:32.152Z,2.43
2018-09-21T11:26:00.543Z,2.30
2018-09-21T11:28:28.981Z,2.20
2018-09-21T11:30:57.394Z,2.33
2018-09-21T11:33:25.903Z,2.80
2018-09-21T11:35:54.389Z,2.33
2018-09-21T11:38:22.748Z,2.03
2018-09-21T11:40:51.244Z,2.93
2018-09-21T11:43:19.595Z,2.13
2018-09-21T11:45:48.054Z,2.47
2018-09-21T11:48:16.492Z,2.30
2018-09-21T11:50:45.394Z,2.50
2018-09-21T11:53:14.034Z,1.70
2018-09-21T11:55:42.460Z,2.20
2018-09-21T11:58:10.853Z,2.50
2018-09-21T12:00:39.530Z,2.87
2018-09-21T12:03:07.946Z,2.83
2018-09-21T12:05:36.571Z,2.90
2018-09-21T12:08:04.893Z,2.37
2018-09-21T12:10:33.420Z,2.17
2018-09-21T12:13:01.771Z,3.70
2018-09-21T12:15:30.270Z,2.17
2018-09-21T12:17:59.305Z,2.90
2018-09-21T12:20:27.771Z,2.60
2018-09-21T12:22:56.293Z,3.10
2018-09-21T12:25:24.972Z,3.33
2018-09-21T12:27:53.381Z,2.40
2018-09-21T12:30:22.506Z,3.17
2018-09-21T12:32:51.133Z,4.17
2018-09-21T12:35:19.922Z,3.63
2018-09-21T12:37:48.415Z,3.60
2018-09-21T12:40:17.041Z,3.50
2018-09-21T12:42:45.644Z,2.53
2018-09-21T12:45:14.271Z,3.60
2018-09-21T12:47:42.763Z,4.00
2018-09-21T12:50:11.305Z,3.60
2018-09-21T12:52:39.806Z,4.40
2018-09-21T12:55:08.557Z,3.60
2018-09-21T12:57:36.971Z,3.10
2018-09-21T13:00:06.741Z,3.47
2018-09-21T13:02:36.062Z,3.20
2018-09-21T13:05:04.479Z,3.00
2018-09-21T13:07:32.953Z,3.20
2018-09-21T13:10:01.687Z,4.03
2018-09-21T13:12:31.088Z,3.30
2018-09-21T13:14:59.798Z,4.00
2018-09-21T13:17:28.214Z,3.90
2018-09-21T13:19:56.636Z,3.80
2018-09-21T13:22:25.245Z,3.57
2018-09-21T13:24:53.764Z,4.13
2018-09-21T13:27:22.181Z,2.23
2018-09-21T13:29:50.767Z,1.83
2018-09-21T13:32:19.512Z,1.87
2018-09-21T13:34:48.048Z,1.33
2018-09-21T13:37:16.476Z,1.23
2018-09-21T13:39:45.058Z,1.67
2018-09-21T13:42:13.681Z,1.43
2018-09-21T13:44:42.147Z,1.20
2018-09-21T13:47:10.633Z,1.03
2018-09-21T13:49:39.340Z,1.20
2018-09-21T13:52:07.978Z,1.30
2018-09-21T13:54:36.481Z,1.60
2018-09-21T13:57:04.874Z,0.87
2018-09-21T13:59:33.369Z,1.20
2018-09-21T14:02:02.139Z,1.13
2018-09-21T14:04:30.690Z,1.17
2018-09-21T14:06:59.261Z,1.27
2018-09-21T14:09:27.700Z,1.57
2018-09-21T14:11:56.143Z,1.00
2018-09-21T14:14:25.296Z,1.33
2018-09-21T14:16:53.905Z,1.23
2018-09-21T14:19:22.686Z,0.87
2018-09-21T14:21:51.681Z,1.47
2018-09-21T14:24:20.140Z,1.67
2018-09-21T14:26:48.744Z,1.50
2018-09-21T14:29:17.340Z,1.40
2018-09-21T14:31:46.038Z,1.10
2018-09-21T14:34:14.369Z,1.30
2018-09-21T14:36:43.276Z,1.10
2018-09-21T14:39:12.396Z,1.60
2018-09-21T14:41:40.917Z,1.00
2018-09-21T14:44:09.402Z,0.90
2018-09-21T14:46:38.332Z,1.00
2018-09-21T14:49:07.958Z,0.80
2018-09-21T14:51:36.763Z,0.77
2018-09-21T14:54:05.824Z,0.87
2018-09-21T14:56:34.588Z,0.90
2018-09-21T14:59:03.241Z,1.00
2018-09-21T15:01:31.761Z,1.23
2018-09-21T15:04:01.227Z,0.80
2018-09-21T15:06:29.888Z,0.60
2018-09-21T15:08:58.381Z,1.43
2018-09-21T15:11:26.855Z,0.90
2018-09-21T15:13:55.373Z,1.00
2018-09-21T15:16:23.903Z,0.70
2018-09-21T15:18:53.009Z,1.10
2018-09-21T15:21:21.460Z,0.97
2018-09-21T15:23:51.187Z,0.70
2018-09-21T15:26:21.770Z,1.17
2018-09-21T15:28:50.366Z,0.80
2018-09-21T15:31:18.812Z,0.83
2018-09-21T15:33:47.293Z,0.87
2018-09-21T15:36:15.723Z,0.60
2018-09-21T15:38:44.370Z,0.70
2018-09-21T15:41:12.710Z,1.00
2018-09-21T15:43:41.298Z,1.60
2018-09-21T15:46:09.670Z,1.10
2018-09-21T15:48:38.096Z,0.93
2018-09-21T15:51:06.898Z,0.80
2018-09-21T15:53:35.449Z,0.87
2018-09-21T15:56:04.096Z,0.77
2018-09-21T15:58:32.507Z,0.80
2018-09-21T16:01:00.916Z,1.07
2018-09-21T16:03:29.405Z,1.07
2018-09-21T16:05:57.963Z,1.40
2018-09-21T16:08:26.326Z,0.93
2018-09-21T16:10:54.718Z,0.83
2018-09-21T16:13:23.262Z,0.70
2018-09-21T16:15:51.717Z,1.20
2018-09-21T16:18:20.206Z,0.60
2018-09-21T16:20:49.553Z,1.63
2018-09-21T16:23:18.067Z,1.00
2018-09-21T16:25:46.568Z,1.70
2018-09-21T16:28:15.254Z,0.70
2018-09-21T16:30:43.813Z,1.63
2018-09-21T16:33:12.373Z,1.43
2018-09-21T16:35:40.867Z,0.60
2018-09-21T16:38:09.435Z,1.57
2018-09-21T16:40:38.197Z,0.90
2018-09-21T16:43:06.876Z,1.20
2018-09-21T16:45:35.273Z,3.33
2018-09-21T16:48:03.690Z,0.97
2018-09-21T16:50:33.527Z,1.10
2018-09-21T16:53:01.911Z,1.00
2018-09-21T16:55:30.297Z,0.90
2018-09-21T16:57:58.824Z,0.97
2018-09-21T17:00:27.333Z,1.03
2018-09-21T17:02:55.933Z,0.87
2018-09-21T17:05:24.420Z,0.60
2018-09-21T17:07:52.886Z,1.40
2018-09-21T17:10:21.335Z,1.00
2018-09-21T17:12:50.684Z,0.90
2018-09-21T17:15:19.233Z,1.17
2018-09-21T17:17:47.722Z,0.97
2018-09-21T17:20:16.281Z,1.30
2018-09-21T17:22:44.814Z,0.90
2018-09-21T17:25:13.288Z,0.70
2018-09-21T17:27:41.767Z,1.00
2018-09-21T17:30:10.510Z,0.70
2018-09-21T17:32:40.187Z,1.03
2018-09-21T17:35:08.805Z,0.90
2018-09-21T17:37:38.319Z,1.03
2018-09-21T17:40:07.018Z,2.20
2018-09-21T17:42:35.621Z,1.90
2018-09-21T17:45:04.194Z,0.80
2018-09-21T17:47:32.667Z,1.20
2018-09-21T17:50:01.159Z,1.33
2018-09-21T17:52:29.967Z,1.00
2018-09-21T17:54:58.508Z,1.00
2018-09-21T17:57:26.952Z,1.00
2018-09-21T17:59:55.503Z,1.20
2018-09-21T18:02:23.976Z,0.70
2018-09-21T18:04:52.529Z,0.93
2018-09-21T18:07:21.868Z,0.80
2018-09-21T18:09:51.947Z,1.70
2018-09-21T18:12:20.997Z,0.90
2018-09-21T18:14:50.252Z,0.90
2018-09-21T18:17:18.890Z,1.10
2018-09-21T18:19:48.265Z,0.80
2018-09-21T18:22:16.937Z,1.07
2018-09-21T18:24:45.663Z,0.63
2018-09-21T18:27:14.347Z,1.10
2018-09-21T18:29:42.802Z,1.43
2018-09-21T18:32:11.205Z,1.03
2018-09-21T18:34:39.731Z,0.90
2018-09-21T18:37:08.543Z,1.07
2018-09-21T18:39:37.228Z,0.90
2018-09-21T18:42:05.755Z,1.00
2018-09-21T18:44:34.755Z,1.03
2018-09-21T18:47:03.143Z,1.20
2018-09-21T18:49:31.609Z,0.60
2018-09-21T18:52:00.701Z,0.80
2018-09-21T18:54:29.241Z,0.70
2018-09-21T18:56:57.812Z,1.60
2018-09-21T18:59:26.542Z,0.70
2018-09-21T19:01:55.598Z,0.97
2018-09-21T19:04:24.585Z,1.30
2018-09-21T19:06:53.329Z,1.10
2018-09-21T19:09:21.904Z,1.20
2018-09-21T19:11:50.519Z,1.00
2018-09-21T19:14:19.202Z,1.50
2018-09-21T19:16:47.744Z,1.50
2018-09-21T19:19:16.310Z,1.47
2018-09-21T19:21:45.012Z,2.10
2018-09-21T19:24:13.770Z,1.43
2018-09-21T19:26:42.457Z,1.70
2018-09-21T19:29:11.100Z,1.87
2018-09-21T19:31:39.766Z,1.90
2018-09-21T19:34:08.473Z,1.50
2018-09-21T19:36:37.328Z,1.20
2018-09-21T19:39:10.452Z,1.40
2018-09-21T19:41:39.140Z,1.17
2018-09-21T19:44:07.947Z,1.70
2018-09-21T19:46:36.769Z,1.53
2018-09-21T19:49:05.614Z,2.27
2018-09-21T19:51:34.250Z,1.70
2018-09-21T19:54:02.876Z,1.10
2018-09-21T19:56:31.405Z,1.50
2018-09-21T19:59:00.011Z,1.10
2018-09-21T20:01:28.419Z,1.17
2018-09-21T20:03:56.788Z,1.20
2018-09-21T20:06:25.231Z,1.10
2018-09-21T20:08:53.667Z,1.10
2018-09-21T20:11:22.700Z,1.30
2018-09-21T20:13:51.174Z,1.50
2018-09-21T20:16:19.718Z,1.10
2018-09-21T20:18:48.227Z,1.10
2018-09-21T20:21:16.693Z,1.10
2018-09-21T20:23:45.177Z,1.10
2018-09-21T20:26:13.692Z,1.10
2018-09-21T20:28:42.109Z,1.00
2018-09-21T20:31:15.012Z,1.30
2018-09-21T20:33:43.642Z,1.23
2018-09-21T20:36:12.516Z,1.70
2018-09-21T20:38:41.058Z,1.37
2018-09-21T20:41:09.814Z,1.30
2018-09-21T20:43:38.550Z,1.67
2018-09-21T20:46:07.569Z,1.77
2018-09-21T20:48:36.543Z,1.00
2018-09-21T20:51:05.304Z,1.43
2018-09-21T20:53:33.893Z,1.50
2018-09-21T20:56:02.448Z,1.40
2018-09-21T20:58:30.840Z,1.70
2018-09-21T21:00:59.397Z,1.30
2018-09-21T21:03:28.005Z,1.87
2018-09-21T21:05:56.764Z,1.40
2018-09-21T21:08:25.177Z,1.90
2018-09-21T21:10:53.929Z,1.50
2018-09-21T21:13:22.667Z,1.20
2018-09-21T21:15:51.230Z,1.17
2018-09-21T21:18:20.360Z,1.80
2018-09-21T21:20:49.141Z,2.13
2018-09-21T21:23:17.712Z,1.20
2018-09-21T21:25:46.192Z,1.37
2018-09-21T21:28:14.815Z,1.30
2018-09-21T21:30:43.533Z,1.67
2018-09-21T21:33:12.273Z,1.70
2018-09-21T21:35:40.788Z,1.10
2018-09-21T21:38:09.263Z,1.90
2018-09-21T21:40:37.975Z,1.77
2018-09-21T21:43:06.893Z,2.37
2018-09-21T21:45:35.635Z,1.97
2018-09-21T21:48:04.112Z,3.63
2018-09-21T21:50:32.755Z,2.00
2018-09-21T21:53:01.172Z,2.87
2018-09-21T21:55:29.629Z,3.93
2018-09-21T21:57:58.115Z,3.00
2018-09-21T22:00:30.735Z,3.17
2018-09-21T22:02:59.293Z,4.40
2018-09-21T22:05:27.774Z,4.53
2018-09-21T22:07:56.564Z,4.40
2018-09-21T22:10:25.112Z,4.57
2018-09-21T22:12:57.855Z,6.30
2018-09-21T22:15:26.311Z,5.00
2018-09-21T22:17:55.253Z,5.77
2018-09-21T22:20:23.679Z,5.00
2018-09-21T22:22:52.166Z,4.50
2018-09-21T22:25:21.368Z,4.13
2018-09-21T22:27:49.784Z,4.67
2018-09-21T22:30:18.426Z,3.37
2018-09-21T22:32:46.960Z,4.27
2018-09-21T22:35:15.550Z,4.03
2018-09-21T22:37:44.224Z,3.43
2018-09-21T22:40:12.635Z,3.73
2018-09-21T22:42:41.120Z,4.97
2018-09-21T22:45:09.638Z,4.20
2018-09-21T22:47:38.188Z,4.33
2018-09-21T22:50:06.852Z,3.80
2018-09-21T22:52:35.368Z,5.10
2018-09-21T22:55:04.056Z,5.90
2018-09-21T22:57:32.641Z,4.50
2018-09-21T23:00:01.032Z,4.23
2018-09-21T23:02:29.517Z,3.87
2018-09-21T23:04:58.065Z,3.63
2018-09-21T23:07:26.575Z,4.30
2018-09-21T23:09:55.183Z,4.20
2018-09-21T23:12:23.759Z,4.60
2018-09-21T23:14:52.396Z,3.90
2018-09-21T23:17:20.982Z,4.13
2018-09-21T23:19:49.572Z,4.27
2018-09-21T23:22:18.051Z,5.20
2018-09-21T23:24:46.750Z,4.57
2018-09-21T23:27:15.156Z,3.67
2018-09-21T23:29:43.489Z,3.93
2018-09-21T23:32:12.322Z,3.20
2018-09-21T23:34:40.805Z,3.87
2018-09-21T23:37:09.436Z,4.60
2018-09-21T23:39:37.865Z,3.73
2018-09-21T23:42:06.276Z,3.00
2018-09-21T23:44:34.706Z,4.40
2018-09-21T23:47:03.365Z,2.63
2018-09-21T23:49:31.781Z,3.33
2018-09-21T23:52:00.105Z,2.53
2018-09-21T23:54:28.606Z,2.30
2018-09-21T23:56:56.985Z,2.10
2018-09-21T23:59:25.407Z,2.23
